sensor_id;sensor_type;location;lat;lon;timestamp;P1;durP1;ratioP1;P2;durP2;ratioP2
23682;SDS011;24897;53.514;10.482;2023-05-19T00:02:25;36.77;;;33.17;;
23682;SDS011;24897;53.514;10.482;2023-05-19T00:05:10;38.43;;;34.73;;
23682;SDS011;24897;53.514;10.482;2023-05-19T00:08:01;37.40;;;33.63;;
23682;SDS011;24897;53.514;10.482;2023-05-19T00:10:46;37.73;;;33.93;;
23682;SDS011;24897;53.514;10.482;2023-05-19T00:13:31;36.13;;;32.37;;
23682;SDS011;24897;53.514;10.482;2023-05-19T00:16:16;37.07;;;33.47;;
23682;SDS011;24897;53.514;10.482;2023-05-19T00:19:01;37.47;;;33.47;;
23682;SDS011;24897;53.514;10.482;2023-05-19T00:21:46;36.53;;;32.80;;
23682;SDS011;24897;53.514;10.482;2023-05-19T00:24:30;37.90;;;34.00;;
23682;SDS011;24897;53.514;10.482;2023-05-19T00:27:15;36.00;;;32.27;;
23682;SDS011;24897;53.514;10.482;2023-05-19T00:29:59;37.10;;;33.03;;
23682;SDS011;24897;53.514;10.482;2023-05-19T00:32:43;35.67;;;32.10;;
23682;SDS011;24897;53.514;10.482;2023-05-19T00:35:27;36.10;;;32.40;;
23682;SDS011;24897;53.514;10.482;2023-05-19T00:38:12;37.93;;;34.13;;
23682;SDS011;24897;53.514;10.482;2023-05-19T00:40:56;36.37;;;32.67;;
23682;SDS011;24897;53.514;10.482;2023-05-19T00:43:40;38.07;;;33.87;;
23682;SDS011;24897;53.514;10.482;2023-05-19T00:46:24;36.27;;;32.47;;
23682;SDS011;24897;53.514;10.482;2023-05-19T00:49:08;37.80;;;33.83;;
23682;SDS011;24897;53.514;10.482;2023-05-19T00:51:52;36.90;;;33.00;;
23682;SDS011;24897;53.514;10.482;2023-05-19T00:54:38;38.60;;;34.50;;
23682;SDS011;24897;53.514;10.482;2023-05-19T00:57:22;37.70;;;33.83;;
23682;SDS011;24897;53.514;10.482;2023-05-19T01:00:07;37.50;;;33.60;;
23682;SDS011;24897;53.514;10.482;2023-05-19T01:02:52;38.20;;;34.37;;
23682;SDS011;24897;53.514;10.482;2023-05-19T01:05:37;38.00;;;33.90;;
23682;SDS011;24897;53.514;10.482;2023-05-19T01:08:24;38.07;;;34.17;;
23682;SDS011;24897;53.514;10.482;2023-05-19T01:11:08;37.27;;;32.77;;
23682;SDS011;24897;53.514;10.482;2023-05-19T01:13:53;38.20;;;33.93;;
23682;SDS011;24897;53.514;10.482;2023-05-19T01:16:48;39.20;;;33.83;;
23682;SDS011;24897;53.514;10.482;2023-05-19T01:22:44;38.23;;;34.37;;
23682;SDS011;24897;53.514;10.482;2023-05-19T01:32:18;36.63;;;32.93;;
23682;SDS011;24897;53.514;10.482;2023-05-19T01:35:05;36.10;;;32.33;;
23682;SDS011;24897;53.514;10.482;2023-05-19T01:37:56;39.43;;;33.73;;
23682;SDS011;24897;53.514;10.482;2023-05-19T01:40:42;36.63;;;32.70;;
23682;SDS011;24897;53.514;10.482;2023-05-19T01:43:27;36.00;;;32.30;;
23682;SDS011;24897;53.514;10.482;2023-05-19T01:46:13;35.27;;;31.70;;
23682;SDS011;24897;53.514;10.482;2023-05-19T01:48:58;38.70;;;33.50;;
23682;SDS011;24897;53.514;10.482;2023-05-19T01:51:43;35.57;;;31.87;;
23682;SDS011;24897;53.514;10.482;2023-05-19T01:54:27;37.13;;;33.37;;
23682;SDS011;24897;53.514;10.482;2023-05-19T01:57:29;36.47;;;32.47;;
23682;SDS011;24897;53.514;10.482;2023-05-19T02:00:47;35.87;;;32.43;;
23682;SDS011;24897;53.514;10.482;2023-05-19T02:10:00;38.20;;;34.00;;
23682;SDS011;24897;53.514;10.482;2023-05-19T02:12:54;36.33;;;32.63;;
23682;SDS011;24897;53.514;10.482;2023-05-19T02:15:45;36.60;;;33.00;;
23682;SDS011;24897;53.514;10.482;2023-05-19T02:18:31;36.87;;;33.03;;
23682;SDS011;24897;53.514;10.482;2023-05-19T02:21:16;36.53;;;32.70;;
23682;SDS011;24897;53.514;10.482;2023-05-19T02:24:00;36.63;;;33.10;;
23682;SDS011;24897;53.514;10.482;2023-05-19T02:26:44;36.60;;;32.90;;
23682;SDS011;24897;53.514;10.482;2023-05-19T02:29:28;36.57;;;32.50;;
23682;SDS011;24897;53.514;10.482;2023-05-19T02:32:13;37.67;;;33.57;;
23682;SDS011;24897;53.514;10.482;2023-05-19T02:34:58;37.57;;;33.57;;
23682;SDS011;24897;53.514;10.482;2023-05-19T02:37:43;37.10;;;33.20;;
23682;SDS011;24897;53.514;10.482;2023-05-19T02:40:27;36.63;;;32.73;;
23682;SDS011;24897;53.514;10.482;2023-05-19T02:43:11;38.33;;;34.30;;
23682;SDS011;24897;53.514;10.482;2023-05-19T02:45:55;38.57;;;34.47;;
23682;SDS011;24897;53.514;10.482;2023-05-19T02:48:40;37.80;;;33.83;;
23682;SDS011;24897;53.514;10.482;2023-05-19T02:51:24;41.10;;;33.90;;
23682;SDS011;24897;53.514;10.482;2023-05-19T02:54:08;37.50;;;33.60;;
23682;SDS011;24897;53.514;10.482;2023-05-19T02:56:52;37.53;;;33.43;;
23682;SDS011;24897;53.514;10.482;2023-05-19T02:59:36;37.93;;;33.90;;
23682;SDS011;24897;53.514;10.482;2023-05-19T03:02:20;37.90;;;33.97;;
23682;SDS011;24897;53.514;10.482;2023-05-19T03:05:04;38.97;;;34.40;;
23682;SDS011;24897;53.514;10.482;2023-05-19T03:07:50;38.33;;;34.13;;
23682;SDS011;24897;53.514;10.482;2023-05-19T03:10:34;37.60;;;33.50;;
23682;SDS011;24897;53.514;10.482;2023-05-19T03:13:19;37.70;;;33.57;;
23682;SDS011;24897;53.514;10.482;2023-05-19T03:16:03;38.50;;;33.40;;
23682;SDS011;24897;53.514;10.482;2023-05-19T03:18:47;39.33;;;34.93;;
23682;SDS011;24897;53.514;10.482;2023-05-19T03:21:32;39.17;;;33.90;;
23682;SDS011;24897;53.514;10.482;2023-05-19T03:24:17;45.27;;;35.30;;
23682;SDS011;24897;53.514;10.482;2023-05-19T03:27:01;41.63;;;34.20;;
23682;SDS011;24897;53.514;10.482;2023-05-19T03:29:47;39.60;;;33.63;;
23682;SDS011;24897;53.514;10.482;2023-05-19T03:32:32;42.60;;;34.23;;
23682;SDS011;24897;53.514;10.482;2023-05-19T03:35:16;41.00;;;34.43;;
23682;SDS011;24897;53.514;10.482;2023-05-19T03:38:01;43.67;;;32.93;;
23682;SDS011;24897;53.514;10.482;2023-05-19T03:40:45;42.37;;;33.17;;
23682;SDS011;24897;53.514;10.482;2023-05-19T03:43:29;39.63;;;33.63;;
23682;SDS011;24897;53.514;10.482;2023-05-19T03:46:13;39.30;;;34.10;;
23682;SDS011;24897;53.514;10.482;2023-05-19T03:48:57;36.17;;;31.63;;
23682;SDS011;24897;53.514;10.482;2023-05-19T03:51:41;37.80;;;31.80;;
23682;SDS011;24897;53.514;10.482;2023-05-19T03:54:25;38.67;;;32.57;;
23682;SDS011;24897;53.514;10.482;2023-05-19T03:57:09;38.90;;;31.87;;
23682;SDS011;24897;53.514;10.482;2023-05-19T03:59:54;35.67;;;30.80;;
23682;SDS011;24897;53.514;10.482;2023-05-19T04:02:38;37.77;;;32.07;;
23682;SDS011;24897;53.514;10.482;2023-05-19T04:05:23;41.33;;;32.57;;
23682;SDS011;24897;53.514;10.482;2023-05-19T04:08:08;36.70;;;30.87;;
23682;SDS011;24897;53.514;10.482;2023-05-19T04:10:51;37.70;;;30.57;;
23682;SDS011;24897;53.514;10.482;2023-05-19T04:13:36;39.53;;;31.57;;
23682;SDS011;24897;53.514;10.482;2023-05-19T04:16:20;34.90;;;30.60;;
23682;SDS011;24897;53.514;10.482;2023-05-19T04:19:04;38.80;;;31.57;;
23682;SDS011;24897;53.514;10.482;2023-05-19T04:21:48;35.60;;;30.50;;
23682;SDS011;24897;53.514;10.482;2023-05-19T04:24:32;33.93;;;30.13;;
23682;SDS011;24897;53.514;10.482;2023-05-19T04:27:17;34.30;;;30.37;;
23682;SDS011;24897;53.514;10.482;2023-05-19T04:30:02;37.53;;;29.93;;
23682;SDS011;24897;53.514;10.482;2023-05-19T04:32:47;34.93;;;29.73;;
23682;SDS011;24897;53.514;10.482;2023-05-19T04:35:33;36.60;;;29.17;;
23682;SDS011;24897;53.514;10.482;2023-05-19T04:38:17;34.17;;;30.27;;
23682;SDS011;24897;53.514;10.482;2023-05-19T04:41:02;33.53;;;28.57;;
23682;SDS011;24897;53.514;10.482;2023-05-19T04:43:46;31.93;;;27.77;;
23682;SDS011;24897;53.514;10.482;2023-05-19T04:46:32;30.73;;;27.67;;
23682;SDS011;24897;53.514;10.482;2023-05-19T04:49:16;31.33;;;27.97;;
23682;SDS011;24897;53.514;10.482;2023-05-19T04:52:02;70.03;;;64.57;;
23682;SDS011;24897;53.514;10.482;2023-05-19T04:54:46;63.37;;;58.13;;
23682;SDS011;24897;53.514;10.482;2023-05-19T04:57:30;59.20;;;54.83;;
23682;SDS011;24897;53.514;10.482;2023-05-19T05:00:14;54.13;;;49.93;;
23682;SDS011;24897;53.514;10.482;2023-05-19T05:02:59;56.67;;;52.43;;
23682;SDS011;24897;53.514;10.482;2023-05-19T05:05:43;54.63;;;50.43;;
23682;SDS011;24897;53.514;10.482;2023-05-19T05:08:27;57.13;;;52.80;;
23682;SDS011;24897;53.514;10.482;2023-05-19T05:11:12;55.47;;;51.47;;
23682;SDS011;24897;53.514;10.482;2023-05-19T05:13:57;57.97;;;53.27;;
23682;SDS011;24897;53.514;10.482;2023-05-19T05:16:41;54.27;;;50.17;;
23682;SDS011;24897;53.514;10.482;2023-05-19T05:19:26;56.23;;;52.17;;
23682;SDS011;24897;53.514;10.482;2023-05-19T05:22:11;53.60;;;49.43;;
23682;SDS011;24897;53.514;10.482;2023-05-19T05:24:55;47.40;;;43.43;;
23682;SDS011;24897;53.514;10.482;2023-05-19T05:27:40;43.90;;;40.63;;
23682;SDS011;24897;53.514;10.482;2023-05-19T05:30:24;46.23;;;42.63;;
23682;SDS011;24897;53.514;10.482;2023-05-19T05:33:08;44.67;;;41.33;;
23682;SDS011;24897;53.514;10.482;2023-05-19T05:35:53;43.73;;;39.97;;
23682;SDS011;24897;53.514;10.482;2023-05-19T05:38:37;44.00;;;40.70;;
23682;SDS011;24897;53.514;10.482;2023-05-19T05:41:21;44.63;;;41.03;;
23682;SDS011;24897;53.514;10.482;2023-05-19T05:44:05;43.67;;;40.13;;
23682;SDS011;24897;53.514;10.482;2023-05-19T05:46:49;43.07;;;39.73;;
23682;SDS011;24897;53.514;10.482;2023-05-19T05:49:33;44.13;;;40.60;;
23682;SDS011;24897;53.514;10.482;2023-05-19T05:52:21;42.20;;;38.90;;
23682;SDS011;24897;53.514;10.482;2023-05-19T05:55:12;45.10;;;41.43;;
23682;SDS011;24897;53.514;10.482;2023-05-19T05:57:57;43.60;;;40.37;;
23682;SDS011;24897;53.514;10.482;2023-05-19T06:00:42;41.70;;;38.53;;
23682;SDS011;24897;53.514;10.482;2023-05-19T06:03:27;43.20;;;39.80;;
23682;SDS011;24897;53.514;10.482;2023-05-19T06:06:11;42.43;;;39.33;;
23682;SDS011;24897;53.514;10.482;2023-05-19T06:08:56;43.23;;;40.07;;
23682;SDS011;24897;53.514;10.482;2023-05-19T06:11:40;42.17;;;39.07;;
23682;SDS011;24897;53.514;10.482;2023-05-19T06:14:24;41.73;;;38.37;;
23682;SDS011;24897;53.514;10.482;2023-05-19T06:17:08;42.23;;;39.13;;
23682;SDS011;24897;53.514;10.482;2023-05-19T06:19:53;44.03;;;40.60;;
23682;SDS011;24897;53.514;10.482;2023-05-19T06:22:37;41.40;;;38.13;;
23682;SDS011;24897;53.514;10.482;2023-05-19T06:25:21;40.73;;;37.60;;
23682;SDS011;24897;53.514;10.482;2023-05-19T06:28:07;41.40;;;38.40;;
23682;SDS011;24897;53.514;10.482;2023-05-19T06:30:51;40.67;;;37.70;;
23682;SDS011;24897;53.514;10.482;2023-05-19T06:33:35;41.17;;;38.03;;
23682;SDS011;24897;53.514;10.482;2023-05-19T06:36:19;39.43;;;36.53;;
23682;SDS011;24897;53.514;10.482;2023-05-19T06:39:03;38.83;;;36.07;;
23682;SDS011;24897;53.514;10.482;2023-05-19T06:41:48;39.70;;;36.70;;
23682;SDS011;24897;53.514;10.482;2023-05-19T06:44:32;40.13;;;36.87;;
23682;SDS011;24897;53.514;10.482;2023-05-19T06:47:16;38.77;;;36.07;;
23682;SDS011;24897;53.514;10.482;2023-05-19T06:50:00;39.20;;;36.13;;
23682;SDS011;24897;53.514;10.482;2023-05-19T06:52:45;38.97;;;35.93;;
23682;SDS011;24897;53.514;10.482;2023-05-19T06:55:29;37.90;;;35.00;;
23682;SDS011;24897;53.514;10.482;2023-05-19T06:58:15;39.17;;;36.33;;
23682;SDS011;24897;53.514;10.482;2023-05-19T07:00:59;39.33;;;36.33;;
23682;SDS011;24897;53.514;10.482;2023-05-19T07:03:43;39.33;;;36.37;;
23682;SDS011;24897;53.514;10.482;2023-05-19T07:06:28;39.70;;;36.80;;
23682;SDS011;24897;53.514;10.482;2023-05-19T07:09:12;40.33;;;37.53;;
23682;SDS011;24897;53.514;10.482;2023-05-19T07:11:56;40.20;;;37.40;;
23682;SDS011;24897;53.514;10.482;2023-05-19T07:14:41;40.67;;;37.77;;
23682;SDS011;24897;53.514;10.482;2023-05-19T07:17:25;38.97;;;36.33;;
23682;SDS011;24897;53.514;10.482;2023-05-19T07:20:09;40.07;;;37.10;;
23682;SDS011;24897;53.514;10.482;2023-05-19T07:22:54;35.83;;;33.13;;
23682;SDS011;24897;53.514;10.482;2023-05-19T07:25:38;33.17;;;30.77;;
23682;SDS011;24897;53.514;10.482;2023-05-19T07:28:23;31.27;;;28.80;;
23682;SDS011;24897;53.514;10.482;2023-05-19T07:31:08;30.80;;;28.40;;
23682;SDS011;24897;53.514;10.482;2023-05-19T07:33:52;30.10;;;27.80;;
23682;SDS011;24897;53.514;10.482;2023-05-19T07:36:36;27.40;;;25.10;;
23682;SDS011;24897;53.514;10.482;2023-05-19T07:39:21;26.50;;;24.50;;
23682;SDS011;24897;53.514;10.482;2023-05-19T07:42:10;25.30;;;23.37;;
23682;SDS011;24897;53.514;10.482;2023-05-19T07:44:54;23.80;;;21.60;;
23682;SDS011;24897;53.514;10.482;2023-05-19T07:47:38;23.07;;;21.10;;
23682;SDS011;24897;53.514;10.482;2023-05-19T07:50:22;21.03;;;19.10;;
23682;SDS011;24897;53.514;10.482;2023-05-19T07:53:06;23.35;;;21.45;;
23682;SDS011;24897;53.514;10.482;2023-05-19T07:55:50;21.75;;;19.73;;
23682;SDS011;24897;53.514;10.482;2023-05-19T07:58:34;26.37;;;24.20;;
23682;SDS011;24897;53.514;10.482;2023-05-19T08:01:18;16.10;;;14.50;;
23682;SDS011;24897;53.514;10.482;2023-05-19T08:04:03;15.27;;;13.97;;
23682;SDS011;24897;53.514;10.482;2023-05-19T08:06:47;15.40;;;14.00;;
23682;SDS011;24897;53.514;10.482;2023-05-19T08:09:31;16.30;;;14.60;;
23682;SDS011;24897;53.514;10.482;2023-05-19T08:12:15;16.07;;;14.10;;
23682;SDS011;24897;53.514;10.482;2023-05-19T08:15:00;16.57;;;14.77;;
23682;SDS011;24897;53.514;10.482;2023-05-19T08:17:44;18.67;;;14.20;;
23682;SDS011;24897;53.514;10.482;2023-05-19T08:20:28;15.53;;;13.83;;
23682;SDS011;24897;53.514;10.482;2023-05-19T08:23:12;16.00;;;13.97;;
23682;SDS011;24897;53.514;10.482;2023-05-19T08:25:56;16.00;;;14.43;;
23682;SDS011;24897;53.514;10.482;2023-05-19T08:28:40;15.97;;;14.03;;
23682;SDS011;24897;53.514;10.482;2023-05-19T08:31:25;15.30;;;13.80;;
23682;SDS011;24897;53.514;10.482;2023-05-19T08:34:09;15.40;;;14.00;;
23682;SDS011;24897;53.514;10.482;2023-05-19T08:36:54;14.90;;;13.60;;
23682;SDS011;24897;53.514;10.482;2023-05-19T08:39:40;18.60;;;14.17;;
23682;SDS011;24897;53.514;10.482;2023-05-19T08:42:24;15.37;;;13.90;;
23682;SDS011;24897;53.514;10.482;2023-05-19T08:45:09;15.53;;;14.10;;
23682;SDS011;24897;53.514;10.482;2023-05-19T08:47:53;15.20;;;14.00;;
23682;SDS011;24897;53.514;10.482;2023-05-19T08:50:39;15.50;;;14.00;;
23682;SDS011;24897;53.514;10.482;2023-05-19T08:53:26;15.97;;;14.37;;
23682;SDS011;24897;53.514;10.482;2023-05-19T08:56:14;15.73;;;14.33;;
23682;SDS011;24897;53.514;10.482;2023-05-19T08:59:02;15.40;;;14.00;;
23682;SDS011;24897;53.514;10.482;2023-05-19T09:01:46;15.50;;;14.00;;
23682;SDS011;24897;53.514;10.482;2023-05-19T09:04:32;15.43;;;14.03;;
23682;SDS011;24897;53.514;10.482;2023-05-19T09:07:17;21.33;;;15.20;;
23682;SDS011;24897;53.514;10.482;2023-05-19T09:10:02;19.17;;;14.67;;
23682;SDS011;24897;53.514;10.482;2023-05-19T09:12:46;17.83;;;14.20;;
23682;SDS011;24897;53.514;10.482;2023-05-19T09:15:31;15.10;;;13.77;;
23682;SDS011;24897;53.514;10.482;2023-05-19T09:18:19;58.03;;;20.20;;
23682;SDS011;24897;53.514;10.482;2023-05-19T09:21:03;15.37;;;13.97;;
23682;SDS011;24897;53.514;10.482;2023-05-19T09:24:02;15.53;;;13.93;;
23682;SDS011;24897;53.514;10.482;2023-05-19T09:27:01;15.37;;;13.97;;
23682;SDS011;24897;53.514;10.482;2023-05-19T09:29:45;15.40;;;13.90;;
23682;SDS011;24897;53.514;10.482;2023-05-19T09:32:31;15.43;;;13.90;;
23682;SDS011;24897;53.514;10.482;2023-05-19T09:35:18;15.07;;;13.60;;
23682;SDS011;24897;53.514;10.482;2023-05-19T09:38:03;15.10;;;13.60;;
23682;SDS011;24897;53.514;10.482;2023-05-19T09:40:48;14.67;;;13.10;;
23682;SDS011;24897;53.514;10.482;2023-05-19T09:43:34;15.90;;;13.83;;
23682;SDS011;24897;53.514;10.482;2023-05-19T09:46:20;15.00;;;13.60;;
23682;SDS011;24897;53.514;10.482;2023-05-19T09:49:11;15.60;;;14.00;;
23682;SDS011;24897;53.514;10.482;2023-05-19T09:51:56;15.47;;;13.97;;
23682;SDS011;24897;53.514;10.482;2023-05-19T09:54:47;16.03;;;14.53;;
23682;SDS011;24897;53.514;10.482;2023-05-19T09:57:32;20.00;;;15.60;;
23682;SDS011;24897;53.514;10.482;2023-05-19T10:00:19;15.80;;;14.20;;
23682;SDS011;24897;53.514;10.482;2023-05-19T10:03:05;14.90;;;13.60;;
23682;SDS011;24897;53.514;10.482;2023-05-19T10:05:50;15.57;;;14.07;;
23682;SDS011;24897;53.514;10.482;2023-05-19T10:08:35;15.27;;;13.97;;
23682;SDS011;24897;53.514;10.482;2023-05-19T10:11:22;15.53;;;13.93;;
23682;SDS011;24897;53.514;10.482;2023-05-19T10:14:08;15.37;;;13.87;;
23682;SDS011;24897;53.514;10.482;2023-05-19T10:16:53;15.37;;;13.77;;
23682;SDS011;24897;53.514;10.482;2023-05-19T10:19:39;15.77;;;14.30;;
23682;SDS011;24897;53.514;10.482;2023-05-19T10:22:25;15.23;;;13.83;;
23682;SDS011;24897;53.514;10.482;2023-05-19T10:25:11;14.83;;;13.40;;
23682;SDS011;24897;53.514;10.482;2023-05-19T10:28:06;15.37;;;13.90;;
23682;SDS011;24897;53.514;10.482;2023-05-19T10:30:55;15.00;;;13.60;;
23682;SDS011;24897;53.514;10.482;2023-05-19T10:37:04;14.80;;;13.60;;
23682;SDS011;24897;53.514;10.482;2023-05-19T10:39:59;15.40;;;13.80;;
23682;SDS011;24897;53.514;10.482;2023-05-19T10:46:16;14.98;;;13.57;;
23682;SDS011;24897;53.514;10.482;2023-05-19T10:49:00;15.10;;;13.50;;
23682;SDS011;24897;53.514;10.482;2023-05-19T10:51:56;15.13;;;13.70;;
23682;SDS011;24897;53.514;10.482;2023-05-19T10:54:41;14.93;;;13.60;;
23682;SDS011;24897;53.514;10.482;2023-05-19T10:57:29;15.27;;;13.67;;
23682;SDS011;24897;53.514;10.482;2023-05-19T11:00:25;15.47;;;13.20;;
23682;SDS011;24897;53.514;10.482;2023-05-19T11:06:17;15.03;;;13.57;;
23682;SDS011;24897;53.514;10.482;2023-05-19T11:09:22;15.53;;;13.97;;
23682;SDS011;24897;53.514;10.482;2023-05-19T11:12:08;14.60;;;13.30;;
23682;SDS011;24897;53.514;10.482;2023-05-19T11:14:53;15.23;;;13.60;;
23682;SDS011;24897;53.514;10.482;2023-05-19T11:17:39;18.03;;;13.83;;
23682;SDS011;24897;53.514;10.482;2023-05-19T11:20:27;16.10;;;14.70;;
23682;SDS011;24897;53.514;10.482;2023-05-19T11:26:00;15.60;;;14.30;;
23682;SDS011;24897;53.514;10.482;2023-05-19T11:28:45;17.10;;;15.10;;
23682;SDS011;24897;53.514;10.482;2023-05-19T11:31:30;16.20;;;14.80;;
23682;SDS011;24897;53.514;10.482;2023-05-19T11:34:15;16.83;;;15.20;;
23682;SDS011;24897;53.514;10.482;2023-05-19T11:37:00;15.43;;;14.13;;
23682;SDS011;24897;53.514;10.482;2023-05-19T11:39:44;15.70;;;14.20;;
23682;SDS011;24897;53.514;10.482;2023-05-19T11:42:30;15.55;;;14.15;;
23682;SDS011;24897;53.514;10.482;2023-05-19T11:45:15;14.70;;;13.23;;
23682;SDS011;24897;53.514;10.482;2023-05-19T11:48:00;15.33;;;13.90;;
23682;SDS011;24897;53.514;10.482;2023-05-19T11:50:48;15.80;;;14.03;;
23682;SDS011;24897;53.514;10.482;2023-05-19T11:53:32;19.60;;;14.90;;
23682;SDS011;24897;53.514;10.482;2023-05-19T11:56:18;16.33;;;14.67;;
23682;SDS011;24897;53.514;10.482;2023-05-19T11:59:02;15.93;;;14.70;;
23682;SDS011;24897;53.514;10.482;2023-05-19T12:01:47;16.10;;;14.50;;
23682;SDS011;24897;53.514;10.482;2023-05-19T12:04:31;15.80;;;14.40;;
23682;SDS011;24897;53.514;10.482;2023-05-19T12:07:16;16.33;;;14.63;;
23682;SDS011;24897;53.514;10.482;2023-05-19T12:10:02;19.33;;;14.07;;
23682;SDS011;24897;53.514;10.482;2023-05-19T12:12:47;15.93;;;14.27;;
23682;SDS011;24897;53.514;10.482;2023-05-19T12:15:33;15.27;;;13.87;;
23682;SDS011;24897;53.514;10.482;2023-05-19T12:18:18;15.70;;;14.30;;
23682;SDS011;24897;53.514;10.482;2023-05-19T12:21:03;17.77;;;14.07;;
23682;SDS011;24897;53.514;10.482;2023-05-19T12:23:48;15.60;;;14.30;;
23682;SDS011;24897;53.514;10.482;2023-05-19T12:26:34;15.37;;;13.90;;
23682;SDS011;24897;53.514;10.482;2023-05-19T12:29:18;16.17;;;14.50;;
23682;SDS011;24897;53.514;10.482;2023-05-19T12:32:02;16.63;;;14.93;;
23682;SDS011;24897;53.514;10.482;2023-05-19T12:34:47;16.27;;;14.67;;
23682;SDS011;24897;53.514;10.482;2023-05-19T12:37:32;15.17;;;13.67;;
23682;SDS011;24897;53.514;10.482;2023-05-19T12:40:17;15.23;;;13.83;;
23682;SDS011;24897;53.514;10.482;2023-05-19T12:43:01;16.13;;;14.30;;
23682;SDS011;24897;53.514;10.482;2023-05-19T12:45:46;15.13;;;13.83;;
23682;SDS011;24897;53.514;10.482;2023-05-19T12:48:31;16.40;;;14.70;;
23682;SDS011;24897;53.514;10.482;2023-05-19T12:51:18;18.73;;;14.70;;
23682;SDS011;24897;53.514;10.482;2023-05-19T12:54:02;15.97;;;14.57;;
23682;SDS011;24897;53.514;10.482;2023-05-19T12:56:53;16.67;;;14.37;;
23682;SDS011;24897;53.514;10.482;2023-05-19T12:59:41;16.10;;;14.50;;
23682;SDS011;24897;53.514;10.482;2023-05-19T13:02:25;16.00;;;14.60;;
23682;SDS011;24897;53.514;10.482;2023-05-19T13:05:09;16.63;;;14.67;;
23682;SDS011;24897;53.514;10.482;2023-05-19T13:07:57;16.60;;;15.10;;
23682;SDS011;24897;53.514;10.482;2023-05-19T13:11:02;15.70;;;14.30;;
23682;SDS011;24897;53.514;10.482;2023-05-19T13:13:47;15.63;;;14.20;;
23682;SDS011;24897;53.514;10.482;2023-05-19T13:16:31;17.40;;;14.80;;
23682;SDS011;24897;53.514;10.482;2023-05-19T13:19:16;16.93;;;15.03;;
23682;SDS011;24897;53.514;10.482;2023-05-19T13:22:02;15.33;;;13.93;;
23682;SDS011;24897;53.514;10.482;2023-05-19T13:24:46;15.90;;;14.50;;
23682;SDS011;24897;53.514;10.482;2023-05-19T13:27:31;15.47;;;14.20;;
23682;SDS011;24897;53.514;10.482;2023-05-19T13:30:15;15.63;;;14.33;;
23682;SDS011;24897;53.514;10.482;2023-05-19T13:32:59;16.23;;;14.73;;
23682;SDS011;24897;53.514;10.482;2023-05-19T13:35:44;16.07;;;14.67;;
23682;SDS011;24897;53.514;10.482;2023-05-19T13:38:29;15.83;;;14.33;;
23682;SDS011;24897;53.514;10.482;2023-05-19T13:41:13;16.63;;;15.00;;
23682;SDS011;24897;53.514;10.482;2023-05-19T13:43:57;16.40;;;14.90;;
23682;SDS011;24897;53.514;10.482;2023-05-19T13:46:42;16.70;;;15.27;;
23682;SDS011;24897;53.514;10.482;2023-05-19T13:49:26;16.07;;;14.63;;
23682;SDS011;24897;53.514;10.482;2023-05-19T13:52:10;16.70;;;15.20;;
23682;SDS011;24897;53.514;10.482;2023-05-19T13:54:55;16.10;;;14.53;;
23682;SDS011;24897;53.514;10.482;2023-05-19T13:57:40;16.20;;;14.70;;
23682;SDS011;24897;53.514;10.482;2023-05-19T14:00:24;16.63;;;14.93;;
23682;SDS011;24897;53.514;10.482;2023-05-19T14:03:09;16.23;;;14.73;;
23682;SDS011;24897;53.514;10.482;2023-05-19T14:05:52;16.57;;;14.83;;
23682;SDS011;24897;53.514;10.482;2023-05-19T14:08:37;16.33;;;14.93;;
23682;SDS011;24897;53.514;10.482;2023-05-19T14:11:21;17.47;;;14.80;;
23682;SDS011;24897;53.514;10.482;2023-05-19T14:14:05;16.23;;;14.63;;
23682;SDS011;24897;53.514;10.482;2023-05-19T14:16:49;17.03;;;15.43;;
23682;SDS011;24897;53.514;10.482;2023-05-19T14:19:34;17.43;;;15.63;;
23682;SDS011;24897;53.514;10.482;2023-05-19T14:22:18;17.17;;;15.57;;
23682;SDS011;24897;53.514;10.482;2023-05-19T14:25:02;17.50;;;15.77;;
23682;SDS011;24897;53.514;10.482;2023-05-19T14:27:47;17.27;;;15.67;;
23682;SDS011;24897;53.514;10.482;2023-05-19T14:30:31;18.00;;;15.30;;
23682;SDS011;24897;53.514;10.482;2023-05-19T14:33:16;18.07;;;15.10;;
23682;SDS011;24897;53.514;10.482;2023-05-19T14:36:00;16.60;;;15.10;;
23682;SDS011;24897;53.514;10.482;2023-05-19T14:38:44;16.27;;;14.80;;
23682;SDS011;24897;53.514;10.482;2023-05-19T14:41:28;17.17;;;15.37;;
23682;SDS011;24897;53.514;10.482;2023-05-19T14:44:13;16.20;;;14.60;;
23682;SDS011;24897;53.514;10.482;2023-05-19T14:46:58;17.50;;;15.20;;
23682;SDS011;24897;53.514;10.482;2023-05-19T14:49:43;16.00;;;14.50;;
23682;SDS011;24897;53.514;10.482;2023-05-19T14:52:28;16.77;;;15.17;;
23682;SDS011;24897;53.514;10.482;2023-05-19T14:55:12;16.10;;;14.60;;
23682;SDS011;24897;53.514;10.482;2023-05-19T14:57:56;16.60;;;15.03;;
23682;SDS011;24897;53.514;10.482;2023-05-19T15:00:40;16.07;;;14.57;;
23682;SDS011;24897;53.514;10.482;2023-05-19T15:03:25;16.07;;;14.57;;
23682;SDS011;24897;53.514;10.482;2023-05-19T15:06:09;16.30;;;14.70;;
23682;SDS011;24897;53.514;10.482;2023-05-19T15:08:54;15.63;;;14.20;;
23682;SDS011;24897;53.514;10.482;2023-05-19T15:11:39;15.90;;;14.47;;
23682;SDS011;24897;53.514;10.482;2023-05-19T15:14:23;15.90;;;14.20;;
23682;SDS011;24897;53.514;10.482;2023-05-19T15:17:07;16.03;;;14.47;;
23682;SDS011;24897;53.514;10.482;2023-05-19T15:19:51;16.50;;;14.90;;
23682;SDS011;24897;53.514;10.482;2023-05-19T15:22:35;16.40;;;14.87;;
23682;SDS011;24897;53.514;10.482;2023-05-19T15:25:19;16.47;;;14.87;;
23682;SDS011;24897;53.514;10.482;2023-05-19T15:28:03;16.83;;;15.10;;
23682;SDS011;24897;53.514;10.482;2023-05-19T15:30:47;16.73;;;15.10;;
23682;SDS011;24897;53.514;10.482;2023-05-19T15:33:31;16.73;;;14.93;;
23682;SDS011;24897;53.514;10.482;2023-05-19T15:36:15;16.87;;;15.13;;
23682;SDS011;24897;53.514;10.482;2023-05-19T15:39:00;16.00;;;14.70;;
23682;SDS011;24897;53.514;10.482;2023-05-19T15:41:46;16.73;;;15.00;;
23682;SDS011;24897;53.514;10.482;2023-05-19T15:44:32;15.63;;;14.37;;
23682;SDS011;24897;53.514;10.482;2023-05-19T15:47:19;16.53;;;14.87;;
23682;SDS011;24897;53.514;10.482;2023-05-19T15:50:03;15.80;;;14.30;;
23682;SDS011;24897;53.514;10.482;2023-05-19T15:52:48;15.77;;;14.30;;
23682;SDS011;24897;53.514;10.482;2023-05-19T15:55:32;15.27;;;13.87;;
23682;SDS011;24897;53.514;10.482;2023-05-19T15:58:16;15.83;;;14.17;;
23682;SDS011;24897;53.514;10.482;2023-05-19T16:01:00;15.40;;;14.07;;
23682;SDS011;24897;53.514;10.482;2023-05-19T16:03:45;15.37;;;13.87;;
23682;SDS011;24897;53.514;10.482;2023-05-19T16:06:30;14.70;;;13.50;;
23682;SDS011;24897;53.514;10.482;2023-05-19T16:09:14;15.13;;;13.83;;
23682;SDS011;24897;53.514;10.482;2023-05-19T16:11:59;15.47;;;14.20;;
23682;SDS011;24897;53.514;10.482;2023-05-19T16:14:43;15.83;;;14.47;;
23682;SDS011;24897;53.514;10.482;2023-05-19T16:17:28;15.90;;;14.30;;
23682;SDS011;24897;53.514;10.482;2023-05-19T16:20:13;16.83;;;15.13;;
23682;SDS011;24897;53.514;10.482;2023-05-19T16:22:58;15.30;;;14.00;;